Time;durP1;ratioP1;P1;durP2;ratioP2;P2;SDS_P1;SDS_P2;PMS_P1;PMS_P2;Temp;Humidity;BMP_temperature;BMP_pressure;BME280_temperature;BME280_humidity;BME280_pressure;Samples;Min_cycle;Max_cycle;Signal;HPM_P1;HPM_P2
2023/11/14 00:02:56;;;;;;;8.70;0.50;;;;;;;11.43;71.63;99351.50;10391696;28;20127;-61
2023/11/14 00:07:58;;;;;;;9.20;0.77;;;;;;;11.43;71.92;99365.81;10387706;28;20449;-61
2023/11/14 00:12:59;;;;;;;10.75;0.60;;;;;;;11.42;71.69;99360.63;10408860;28;20045;-61
2023/11/14 00:18:01;;;;;;;11.32;1.05;;;;;;;11.49;72.02;99345.31;10418562;28;20044;-61
2023/11/14 00:23:03;;;;;;;6.85;0.68;;;;;;;11.54;71.71;99367.06;10400116;28;20669;-61
2023/11/14 00:28:04;;;;;;;5.60;0.38;;;;;;;11.61;71.71;99354.44;10403593;28;20525;-61
2023/11/14 00:33:06;;;;;;;10.82;1.75;;;;;;;11.63;71.67;99359.59;10414431;28;20038;-61
2023/11/14 00:38:07;;;;;;;12.23;0.68;;;;;;;11.65;71.80;99370.97;10408735;28;20064;-60
2023/11/14 00:43:09;;;;;;;11.80;1.38;;;;;;;11.71;72.03;99380.94;10414662;28;20053;-60
2023/11/14 00:48:12;;;;;;;9.00;0.70;;;;;;;11.76;72.10;99378.44;10413391;28;20219;-60
2023/11/14 00:53:13;;;;;;;7.03;0.60;;;;;;;11.76;72.07;99378.44;10406195;28;20137;-59
2023/11/14 00:58:14;;;;;;;13.65;0.70;;;;;;;11.71;72.18;99373.69;10405864;28;20710;-60
2023/11/14 01:03:18;;;;;;;9.82;1.15;;;;;;;11.62;72.32;99374.91;10404803;28;20392;-61
2023/11/14 01:08:20;;;;;;;14.48;0.85;;;;;;;11.60;72.63;99373.47;10401318;28;20081;-61
2023/11/14 01:13:21;;;;;;;9.35;1.00;;;;;;;11.63;72.71;99364.97;10409814;28;20052;-62
2023/11/14 01:18:22;;;;;;;16.13;2.08;;;;;;;11.66;72.35;99367.25;10407360;28;20054;-63
2023/11/14 01:23:24;;;;;;;15.40;0.82;;;;;;;11.62;72.22;99368.72;10395359;28;20500;-63
2023/11/14 01:28:26;;;;;;;16.35;1.13;;;;;;;11.61;72.31;99381.34;10405107;28;20044;-63
2023/11/14 01:33:27;;;;;;;14.65;1.58;;;;;;;11.63;72.22;99355.06;10406581;28;20052;-63
2023/11/14 01:38:28;;;;;;;9.07;1.30;;;;;;;11.67;72.10;99358.13;10398708;28;20558;-63
2023/11/14 01:43:40;;;;;;;16.95;1.33;;;;;;;11.71;72.26;99365.59;10408575;28;20044;-62
2023/11/14 01:48:52;;;;;;;14.13;1.65;;;;;;;11.79;72.16;99364.56;10407367;28;20083;-63
2023/11/14 01:53:55;;;;;;;7.95;1.75;;;;;;;11.82;71.75;99363.31;10405690;28;20122;-63
2023/11/14 01:58:57;;;;;;;14.60;2.28;;;;;;;11.86;71.87;99383.41;10412030;28;20041;-63
2023/11/14 02:04:00;;;;;;;14.23;1.08;;;;;;;11.87;71.88;99387.75;10406752;28;20136;-63
2023/11/14 02:09:02;;;;;;;8.98;0.57;;;;;;;11.93;71.62;99396.88;10386122;28;20386;-63
2023/11/14 02:14:05;;;;;;;15.98;1.15;;;;;;;11.90;71.22;99392.75;10402604;28;20042;-63
2023/11/14 02:19:07;;;;;;;10.00;1.65;;;;;;;11.88;71.40;99395.63;10402089;28;20049;-63
2023/11/14 02:24:13;;;;;;;13.77;1.65;;;;;;;11.82;71.51;99388.38;10405263;28;20399;-63
2023/11/14 02:29:16;;;;;;;12.63;1.37;;;;;;;11.74;71.65;99380.50;10410524;28;20050;-63
2023/11/14 02:34:18;;;;;;;16.30;1.40;;;;;;;11.66;71.99;99408.47;10405466;28;20053;-63
2023/11/14 02:39:20;;;;;;;15.05;1.08;;;;;;;11.59;71.61;99414.88;10383347;28;20256;-63
2023/11/14 02:44:21;;;;;;;13.63;0.93;;;;;;;11.57;71.96;99422.31;10394655;28;20524;-63
2023/11/14 02:49:36;;;;;;;12.75;1.80;;;;;;;11.54;72.59;99437.03;10407660;28;20569;-63
2023/11/14 02:54:38;;;;;;;12.20;1.00;;;;;;;11.67;72.09;99450.50;10399054;28;20091;-63
2023/11/14 02:59:39;;;;;;;18.67;1.30;;;;;;;11.70;72.22;99460.03;10398515;28;20042;-63
2023/11/14 03:04:41;;;;;;;12.20;1.52;;;;;;;11.69;72.21;99471.84;10403162;28;20514;-63
2023/11/14 03:09:42;;;;;;;11.50;0.93;;;;;;;11.75;72.19;99468.34;10412878;28;20060;-63
2023/11/14 03:14:43;;;;;;;8.48;1.08;;;;;;;11.78;72.21;99459.00;10418565;28;20041;-63
2023/11/14 03:19:45;;;;;;;6.85;0.60;;;;;;;11.82;72.12;99465.63;10410310;28;20045;-62
2023/11/14 03:24:46;;;;;;;10.23;0.80;;;;;;;11.80;72.35;99473.09;10415514;28;20565;-62
2023/11/14 03:29:48;;;;;;;9.27;1.20;;;;;;;11.81;72.18;99462.13;10421532;28;20045;-62
2023/11/14 03:34:49;;;;;;;16.25;2.17;;;;;;;11.79;72.01;99460.66;10405252;28;20042;-63
2023/11/14 03:39:51;;;;;;;11.70;1.75;;;;;;;11.79;71.93;99472.28;10386572;28;20100;-62
2023/11/14 03:44:52;;;;;;;15.43;3.38;;;;;;;11.81;71.66;99491.75;10406521;28;20045;-63
2023/11/14 03:49:53;;;;;;;6.95;0.80;;;;;;;11.82;71.48;99493.38;10403379;28;20182;-63
2023/11/14 03:54:55;;;;;;;16.73;1.55;;;;;;;11.80;71.63;99491.94;10409486;28;20057;-63
2023/11/14 03:59:56;;;;;;;13.88;1.30;;;;;;;11.73;71.90;99497.31;10403552;28;20524;-62
2023/11/14 04:04:58;;;;;;;10.30;0.70;;;;;;;11.75;71.73;99508.72;10416194;28;20037;-62
2023/11/14 04:09:59;;;;;;;14.13;2.10;;;;;;;11.76;71.37;99507.66;10408248;28;20342;-62
2023/11/14 04:15:01;;;;;;;12.48;1.27;;;;;;;11.66;71.72;99505.38;10405167;28;20050;-63
2023/11/14 04:20:03;;;;;;;10.35;1.27;;;;;;;11.62;71.69;99489.84;10415997;28;20037;-62
2023/11/14 04:25:05;;;;;;;13.48;0.80;;;;;;;11.61;71.76;99482.78;10409205;28;20053;-63
2023/11/14 04:30:08;;;;;;;11.75;0.80;;;;;;;11.58;71.48;99481.34;10404399;28;20049;-62
2023/11/14 04:35:12;;;;;;;11.30;1.08;;;;;;;11.56;71.82;99479.91;10410203;28;20125;-62
2023/11/14 04:40:14;;;;;;;12.02;1.10;;;;;;;11.57;71.82;99482.38;10402094;28;20052;-62
2023/11/14 04:45:16;;;;;;;13.30;1.20;;;;;;;11.57;71.62;99485.09;10405291;28;20436;-63
2023/11/14 04:50:21;;;;;;;16.75;1.58;;;;;;;11.60;71.60;99481.16;10404792;28;20042;-62
2023/11/14 04:55:22;;;;;;;7.97;0.52;;;;;;;11.61;71.57;99493.56;10397609;28;20038;-62
2023/11/14 05:00:24;;;;;;;15.88;1.88;;;;;;;11.62;71.33;99477.22;10396353;28;20088;-62
2023/11/14 05:05:25;;;;;;;14.30;1.35;;;;;;;11.58;71.73;99492.09;10401235;28;20098;-62
2023/11/14 05:10:27;;;;;;;22.85;3.25;;;;;;;11.57;71.72;99495.84;10392539;28;20057;-62
2023/11/14 05:15:28;;;;;;;8.68;0.93;;;;;;;11.60;71.90;99495.44;10404191;28;20056;-62
2023/11/14 05:20:29;;;;;;;12.00;1.25;;;;;;;11.65;71.34;99494.81;10405220;28;20064;-63
2023/11/14 05:25:31;;;;;;;12.18;1.30;;;;;;;11.68;71.33;99503.31;10397961;28;20041;-62
2023/11/14 05:30:33;;;;;;;15.52;1.58;;;;;;;11.78;71.26;99515.56;10414044;28;20059;-62
2023/11/14 05:35:35;;;;;;;14.75;1.02;;;;;;;11.92;71.01;99508.34;10416521;28;20587;-62
2023/11/14 05:40:37;;;;;;;17.67;1.58;;;;;;;11.89;71.30;99504.22;10412192;28;20055;-62
2023/11/14 05:45:38;;;;;;;15.65;1.83;;;;;;;11.92;71.13;99497.59;10411332;28;20515;-64
2023/11/14 05:50:40;;;;;;;12.30;1.95;;;;;;;11.89;71.18;99496.13;10407751;28;20038;-61
2023/11/14 05:55:42;;;;;;;14.57;1.40;;;;;;;11.85;70.96;99509.16;10397544;28;20052;-61
2023/11/14 06:00:43;;;;;;;12.43;0.95;;;;;;;11.91;71.18;99510.22;10383609;28;20041;-61
2023/11/14 06:05:44;;;;;;;14.35;2.25;;;;;;;11.97;71.33;99506.72;10398295;28;20045;-61
2023/11/14 06:10:46;;;;;;;16.52;1.58;;;;;;;11.98;71.61;99513.75;10394808;28;20060;-61
2023/11/14 06:15:48;;;;;;;18.20;1.30;;;;;;;11.95;71.82;99518.69;10408785;28;20053;-61
2023/11/14 06:20:49;;;;;;;16.65;1.08;;;;;;;11.98;71.38;99469.81;10406379;28;20419;-61
2023/11/14 06:25:51;;;;;;;16.45;1.40;;;;;;;11.99;71.61;99487.66;10402517;28;20049;-61
2023/11/14 06:30:53;;;;;;;16.05;2.78;;;;;;;11.98;71.64;99521.81;10394973;28;20041;-61
2023/11/14 06:35:55;;;;;;;16.90;1.73;;;;;;;11.98;71.37;99521.81;10403227;28;20052;-66
2023/11/14 06:40:56;;;;;;;12.43;1.20;;;;;;;12.04;71.71;99515.59;10396230;28;20045;-67
2023/11/14 06:45:59;;;;;;;15.73;2.85;;;;;;;12.16;71.92;99515.00;10395790;28;20077;-68
2023/11/14 06:51:01;;;;;;;8.20;1.10;;;;;;;12.21;71.75;99544.84;10397376;28;20130;-67
2023/11/14 06:56:04;;;;;;;9.45;2.63;;;;;;;12.34;71.79;99546.72;10401560;28;20041;-68
2023/11/14 07:01:07;;;;;;;11.45;1.63;;;;;;;12.46;71.62;99559.38;10395862;28;20059;-66
2023/11/14 07:06:08;;;;;;;15.23;1.05;;;;;;;12.54;71.60;99552.09;10407136;28;20041;-65
2023/11/14 07:11:11;;;;;;;11.45;1.00;;;;;;;12.66;71.33;99561.22;10405708;28;20041;-67
2023/11/14 07:16:13;;;;;;;8.02;0.82;;;;;;;12.74;71.10;99561.00;10411764;28;20049;-66
2023/11/14 07:21:15;;;;;;;15.88;1.10;;;;;;;12.83;70.79;99535.44;10409884;28;20081;-67
2023/11/14 07:26:17;;;;;;;8.55;1.45;;;;;;;12.84;70.83;99544.41;10383494;28;20136;-67
2023/11/14 07:31:20;;;;;;;8.38;0.75;;;;;;;12.92;71.09;99549.56;10401405;28;20077;-68
2023/11/14 07:36:22;;;;;;;14.88;2.70;;;;;;;12.89;70.52;99585.03;10385366;28;20055;-66
2023/11/14 07:41:23;;;;;;;9.18;1.08;;;;;;;12.96;70.27;99575.06;10407396;28;20045;-67
2023/11/14 07:46:25;;;;;;;10.02;0.70;;;;;;;13.19;69.75;99577.31;10393590;28;20045;-67
2023/11/14 07:51:26;;;;;;;6.25;0.90;;;;;;;13.29;69.68;99591.22;10412853;28;20041;-65
2023/11/14 07:56:28;;;;;;;9.38;1.27;;;;;;;13.45;69.48;99589.91;10413199;28;20045;-67
2023/11/14 08:01:30;;;;;;;7.53;0.80;;;;;;;13.53;69.29;99609.63;10425990;28;20103;-67
2023/11/14 08:06:31;;;;;;;12.10;1.10;;;;;;;13.63;69.09;99591.09;10387487;28;20049;-67
2023/11/14 08:11:37;;;;;;;8.23;1.17;;;;;;;13.72;69.13;99554.66;10401062;28;20057;-66
2023/11/14 08:16:39;;;;;;;4.65;0.93;;;;;;;13.69;68.91;99526.22;10378899;28;20045;-67
2023/11/14 08:21:40;;;;;;;10.10;1.08;;;;;;;13.77;69.00;99533.25;10409566;28;20154;-66
2023/11/14 08:26:42;;;;;;;11.15;0.90;;;;;;;13.77;69.04;99524.31;10403331;28;20045;-66
2023/11/14 08:31:43;;;;;;;13.88;3.08;;;;;;;13.85;68.80;99505.97;10401562;28;20045;-67
2023/11/14 08:36:45;;;;;;;14.82;1.13;;;;;;;13.94;68.69;99530.00;10398714;28;20050;-66
2023/11/14 08:41:47;;;;;;;7.72;0.60;;;;;;;13.91;68.55;99533.97;10411799;28;20060;-66
2023/11/14 08:46:48;;;;;;;5.88;0.82;;;;;;;13.95;68.50;99554.13;10415529;28;20057;-67
2023/11/14 08:51:51;;;;;;;8.40;1.20;;;;;;;14.08;68.17;99582.94;10402808;28;20103;-67
2023/11/14 08:56:52;;;;;;;11.73;0.70;;;;;;;14.11;67.99;99581.66;10391202;28;20077;-67
2023/11/14 09:01:54;;;;;;;7.82;0.80;;;;;;;14.20;67.76;99570.38;10404110;28;20527;-67
2023/11/14 09:06:56;;;;;;;7.45;0.70;;;;;;;14.22;67.37;99562.88;10412558;28;20061;-67
2023/11/14 09:11:58;;;;;;;7.80;0.75;;;;;;;14.21;67.52;99536.06;10405058;28;20040;-67
2023/11/14 09:16:59;;;;;;;10.82;1.08;;;;;;;14.17;67.44;99545.66;10402234;28;20124;-67
2023/11/14 09:22:01;;;;;;;8.40;1.10;;;;;;;14.33;66.94;99547.81;10405626;28;20080;-69
2023/11/14 09:27:03;;;;;;;8.82;1.17;;;;;;;14.36;66.76;99535.75;10374157;28;20576;-69
2023/11/14 09:32:05;;;;;;;12.23;1.70;;;;;;;14.36;66.71;99547.38;10399682;28;20050;-68
2023/11/14 09:37:08;;;;;;;8.18;1.25;;;;;;;14.39;66.37;99556.91;10392789;28;20045;-69
2023/11/14 09:42:13;;;;;;;10.10;0.95;;;;;;;14.48;65.97;99564.53;10410692;28;20131;-69
2023/11/14 09:47:15;;;;;;;8.25;1.10;;;;;;;14.46;66.09;99585.56;10400331;28;20494;-67
2023/11/14 09:52:17;;;;;;;9.68;0.90;;;;;;;14.45;65.66;99561.44;10376360;28;20553;-67
2023/11/14 09:57:20;;;;;;;7.90;0.77;;;;;;;14.48;65.50;99542.91;10389003;28;20048;-69
2023/11/14 10:02:22;;;;;;;8.95;0.95;;;;;;;14.61;65.25;99555.53;10402261;28;20121;-69
2023/11/14 10:07:27;;;;;;;9.73;0.90;;;;;;;14.64;65.12;99560.47;10402161;28;20262;-69
2023/11/14 10:12:37;;;;;;;8.98;1.15;;;;;;;14.63;65.37;99588.59;10388065;28;20136;-70
2023/11/14 10:17:43;;;;;;;8.07;1.10;;;;;;;14.67;65.23;99591.66;10384800;28;20053;-70
2023/11/14 10:23:03;;;;;;;7.35;1.45;;;;;;;14.74;65.13;99581.63;10409741;28;20061;-67
2023/11/14 10:28:11;;;;;;;7.20;1.17;;;;;;;14.71;64.99;99579.38;10381002;28;20055;-69
2023/11/14 10:33:13;;;;;;;8.88;0.80;;;;;;;14.68;65.54;99604.16;10388439;28;20058;-70
2023/11/14 10:38:20;;;;;;;11.15;1.08;;;;;;;14.64;65.24;99592.94;10389445;28;20053;-68
2023/11/14 10:43:31;;;;;;;9.05;0.80;;;;;;;14.67;65.03;99573.56;10390710;28;20050;-69
2023/11/14 10:48:33;;;;;;;10.20;0.88;;;;;;;14.65;65.47;99555.88;10393140;28;20052;-70
2023/11/14 10:53:37;;;;;;;6.20;0.60;;;;;;;14.63;65.19;99529.06;10379897;28;20076;-70
2023/11/14 10:58:39;;;;;;;5.60;1.52;;;;;;;14.61;65.11;99517.66;10398545;28;20046;-69
2023/11/14 11:03:41;;;;;;;10.40;0.98;;;;;;;14.56;65.04;99516.63;10362244;28;20042;-67
2023/11/14 11:08:43;;;;;;;15.18;1.35;;;;;;;14.65;65.11;99524.28;10385275;28;20111;-68
2023/11/14 11:13:46;;;;;;;6.80;0.80;;;;;;;14.70;64.93;99514.66;10390744;28;20124;-69
2023/11/14 11:18:49;;;;;;;9.10;0.85;;;;;;;14.61;64.84;99497.88;10387156;28;20041;-68
2023/11/14 11:24:05;;;;;;;7.25;1.55;;;;;;;14.66;64.55;99492.63;10402626;28;20044;-69
2023/11/14 11:29:07;;;;;;;14.00;1.02;;;;;;;14.77;64.81;99497.31;10394036;28;20068;-68
2023/11/14 11:34:27;;;;;;;9.95;1.00;;;;;;;14.78;64.59;99495.41;10385756;28;20149;-69
2023/11/14 11:39:30;;;;;;;8.75;1.10;;;;;;;14.88;64.36;99476.78;10381670;28;20050;-64
2023/11/14 11:44:35;;;;;;;10.35;1.23;;;;;;;14.87;64.37;99484.06;10458867;28;20025;-65
2023/11/14 11:49:37;;;;;;;9.50;1.40;;;;;;;14.96;64.11;99481.88;10464825;28;20053;-65
2023/11/14 11:54:39;;;;;;;15.07;1.95;;;;;;;14.98;64.05;99476.25;10462064;28;20097;-65
2023/11/14 11:59:40;;;;;;;8.35;0.75;;;;;;;15.14;63.77;99461.28;10452366;28;20540;-65
2023/11/14 12:04:42;;;;;;;11.48;1.10;;;;;;;15.20;63.50;99454.94;10436293;28;20242;-67
2023/11/14 12:09:47;;;;;;;8.48;1.08;;;;;;;15.23;63.67;99452.59;10428057;28;20113;-67
2023/11/14 12:14:48;;;;;;;14.27;1.13;;;;;;;15.29;63.25;99459.00;10443301;28;20064;-66
2023/11/14 12:19:50;;;;;;;7.70;1.10;;;;;;;15.26;63.24;99457.59;10444127;28;20048;-66
2023/11/14 12:24:51;;;;;;;10.30;1.02;;;;;;;15.24;63.31;99454.28;10416325;28;20040;-66
2023/11/14 12:30:09;;;;;;;11.68;1.10;;;;;;;15.29;63.36;99442.75;10425171;28;20041;-66
2023/11/14 12:35:11;;;;;;;7.20;0.93;;;;;;;15.28;63.38;99460.03;10431701;28;20060;-65
2023/11/14 12:40:14;;;;;;;7.65;0.88;;;;;;;15.23;63.16;99447.19;10428296;28;20137;-68
2023/11/14 12:45:15;;;;;;;10.55;0.68;;;;;;;15.23;63.26;99432.84;10435093;28;20170;-66
2023/11/14 12:50:22;;;;;;;6.72;0.65;;;;;;;15.16;63.58;99445.63;10424388;28;20045;-66
2023/11/14 12:55:24;;;;;;;;;;;;;;;15.18;63.99;99428.09;10418066;28;20066;-66
2023/11/14 13:00:27;;;;;;;10.00;1.17;;;;;;;15.12;63.59;99429.00;10412590;28;19964;-65
2023/11/14 13:05:29;;;;;;;9.93;1.30;;;;;;;15.17;63.53;99425.63;10438326;28;20037;-65
2023/11/14 13:10:31;;;;;;;6.78;1.27;;;;;;;15.21;63.14;99424.13;10424411;28;20053;-67
2023/11/14 13:15:32;;;;;;;10.15;1.10;;;;;;;15.20;63.38;99414.34;10418810;28;20037;-66
2023/11/14 13:20:34;;;;;;;13.57;2.95;;;;;;;15.12;63.36;99411.94;10405232;28;20107;-67
2023/11/14 13:25:35;;;;;;;6.47;0.57;;;;;;;15.31;63.05;99396.50;10417266;28;20040;-66
2023/11/14 13:30:36;;;;;;;13.65;1.20;;;;;;;15.34;63.01;99398.72;10415611;28;20044;-67
2023/11/14 13:35:38;;;;;;;7.03;1.30;;;;;;;15.39;63.07;99371.78;10403293;28;20043;-67
2023/11/14 13:40:40;;;;;;;13.55;1.60;;;;;;;15.37;63.00;99358.47;10406632;28;20492;-70
2023/11/14 13:45:41;;;;;;;12.63;0.90;;;;;;;15.42;62.91;99350.50;10406682;28;20041;-67
2023/11/14 13:50:43;;;;;;;7.40;0.80;;;;;;;15.45;62.90;99335.66;10404370;28;20052;-70
2023/11/14 13:55:44;;;;;;;4.57;0.60;;;;;;;15.39;62.75;99339.28;10391022;28;20046;-70
2023/11/14 14:00:46;;;;;;;4.65;1.23;;;;;;;15.43;62.61;99333.16;10408455;28;20045;-67
2023/11/14 14:05:47;;;;;;;6.07;0.80;;;;;;;15.46;62.51;99342.69;10399402;28;20128;-66
2023/11/14 14:10:50;;;;;;;9.98;2.42;;;;;;;15.35;62.61;99344.34;10399781;28;20370;-66
2023/11/14 14:15:51;;;;;;;6.13;0.63;;;;;;;15.33;62.76;99341.03;10400280;28;20045;-66
2023/11/14 14:21:00;;;;;;;7.32;0.63;;;;;;;15.29;62.74;99322.78;10409089;28;20044;-65
2023/11/14 14:26:05;;;;;;;5.05;0.80;;;;;;;15.35;62.49;99324.56;10383344;28;20140;-66
2023/11/14 14:31:07;;;;;;;7.45;0.65;;;;;;;15.34;62.37;99317.50;10400949;28;20044;-66
2023/11/14 14:36:09;;;;;;;6.47;0.95;;;;;;;15.32;62.21;99314.19;10368246;28;20049;-66
2023/11/14 14:41:11;;;;;;;7.40;0.90;;;;;;;15.24;62.48;99315.34;10398313;28;20048;-67
2023/11/14 14:46:13;;;;;;;3.80;0.95;;;;;;;15.33;62.18;99308.53;10403690;28;20125;-66
2023/11/14 14:51:14;;;;;;;3.15;0.40;;;;;;;15.25;62.30;99307.00;10403559;28;20056;-66
2023/11/14 14:56:16;;;;;;;6.13;0.77;;;;;;;15.17;62.38;99309.22;10389060;28;20552;-66
2023/11/14 15:01:19;;;;;;;3.47;0.30;;;;;;;15.15;62.45;99298.63;10406602;28;20041;-66
2023/11/14 15:06:20;;;;;;;5.40;0.60;;;;;;;15.23;62.27;99290.16;10396119;28;20055;-66
2023/11/14 15:11:22;;;;;;;6.10;0.40;;;;;;;15.24;62.36;99278.28;10397111;28;20064;-67
2023/11/14 15:16:23;;;;;;;3.60;0.50;;;;;;;15.13;62.61;99289.09;10391676;28;20045;-66
2023/11/14 15:21:25;;;;;;;5.70;0.93;;;;;;;15.02;62.72;99283.41;10391945;28;20127;-66
2023/11/14 15:26:26;;;;;;;5.25;0.38;;;;;;;14.99;62.88;99281.16;10401367;28;20053;-64
2023/11/14 15:31:31;;;;;;;4.75;0.38;;;;;;;15.02;62.63;99269.88;10407447;28;20068;-66
2023/11/14 15:36:32;;;;;;;1.65;0.30;;;;;;;14.96;63.04;99264.56;10406146;28;20041;-66
2023/11/14 15:41:35;;;;;;;2.40;0.20;;;;;;;14.98;62.37;99251.63;10402032;28;20041;-65
2023/11/14 15:46:37;;;;;;;4.93;0.32;;;;;;;14.87;62.87;99243.25;10395728;28;20041;-60
2023/11/14 15:51:39;;;;;;;4.90;0.30;;;;;;;14.79;62.76;99238.19;10383757;28;20077;-60
2023/11/14 15:56:40;;;;;;;2.78;0.60;;;;;;;14.78;62.93;99241.94;10399992;28;20095;-60
2023/11/14 16:01:42;;;;;;;0.65;0.40;;;;;;;14.71;62.96;99234.97;10387813;28;20056;-61
2023/11/14 16:06:45;;;;;;;5.57;0.32;;;;;;;14.44;63.55;99230.72;10411546;28;20045;-59
2023/11/14 16:11:47;;;;;;;3.42;0.30;;;;;;;13.98;65.16;99229.44;10404973;28;20044;-59
2023/11/14 16:16:49;;;;;;;2.83;0.43;;;;;;;13.33;67.11;99227.22;10422308;28;20073;-60
2023/11/14 16:21:50;;;;;;;6.10;0.73;;;;;;;12.92;68.67;99219.66;10423109;28;20056;-62
2023/11/14 16:26:52;;;;;;;2.40;0.30;;;;;;;12.71;69.34;99227.03;10419533;28;20046;-63
2023/11/14 16:31:54;;;;;;;3.13;0.50;;;;;;;12.59;70.01;99207.22;10402217;28;20550;-61
2023/11/14 16:36:55;;;;;;;1.08;0.30;;;;;;;12.42;70.42;99210.44;10412305;28;20053;-63
2023/11/14 16:41:57;;;;;;;5.60;0.40;;;;;;;12.29;70.89;99208.63;10392715;28;20109;-63
2023/11/14 16:47:05;;;;;;;4.95;0.65;;;;;;;12.20;71.55;99198.31;10415575;28;20049;-63
2023/11/14 16:52:08;;;;;;;3.75;0.60;;;;;;;12.13;71.85;99195.66;10422795;28;20070;-62
2023/11/14 16:57:09;;;;;;;4.75;0.80;;;;;;;12.12;72.59;99194.00;10432282;28;20468;-64
2023/11/14 17:02:11;;;;;;;2.78;0.50;;;;;;;12.05;73.46;99188.66;10397666;28;20607;-62
2023/11/14 17:07:13;;;;;;;0.77;0.40;;;;;;;12.03;73.80;99181.84;10383880;28;20076;-63
2023/11/14 17:12:15;;;;;;;1.88;0.43;;;;;;;12.03;74.14;99190.72;10408938;28;20068;-65
2023/11/14 17:17:17;;;;;;;2.70;0.63;;;;;;;12.03;74.21;99198.00;10404801;28;20075;-67
2023/11/14 17:22:18;;;;;;;9.40;0.60;;;;;;;12.04;74.69;99195.06;10413684;28;20045;-67
2023/11/14 17:27:21;;;;;;;1.63;0.60;;;;;;;12.01;75.51;99181.22;10410930;28;20125;-67
2023/11/14 17:32:22;;;;;;;4.18;0.52;;;;;;;12.01;75.54;99178.53;10371355;28;20488;-65
2023/11/14 17:37:24;;;;;;;5.85;0.55;;;;;;;12.02;75.94;99174.78;10376552;28;21075;-64
2023/11/14 17:42:25;;;;;;;8.43;1.80;;;;;;;12.05;76.57;99160.91;10389337;28;20054;-67
2023/11/14 17:47:26;;;;;;;3.78;1.20;;;;;;;12.06;76.34;99162.53;10408153;28;20128;-66
2023/11/14 17:52:28;;;;;;;4.25;1.10;;;;;;;11.97;77.20;99161.97;10391730;28;20064;-66
2023/11/14 17:57:30;;;;;;;3.08;0.60;;;;;;;11.90;77.44;99150.38;10399560;28;20070;-64
2023/11/14 18:02:36;;;;;;;3.22;0.82;;;;;;;11.80;77.47;99150.00;10374841;28;20060;-66
2023/11/14 18:07:38;;;;;;;2.83;1.05;;;;;;;11.83;77.73;99141.50;10407220;28;20131;-66
2023/11/14 18:12:39;;;;;;;3.85;1.52;;;;;;;11.81;78.24;99125.56;10401145;28;20048;-65
2023/11/14 18:17:41;;;;;;;1.90;0.60;;;;;;;11.76;78.45;99114.59;10406918;28;20041;-64
2023/11/14 18:22:42;;;;;;;6.57;0.50;;;;;;;11.83;78.38;99123.47;10375537;28;20096;-64
2023/11/14 18:27:45;;;;;;;2.72;0.57;;;;;;;11.83;78.56;99111.88;10387633;28;20052;-63
2023/11/14 18:32:46;;;;;;;2.22;0.60;;;;;;;11.81;78.84;99100.47;10401924;28;20040;-63
2023/11/14 18:37:48;;;;;;;1.83;0.60;;;;;;;11.74;79.05;99080.84;10415538;28;20045;-62
2023/11/14 18:42:50;;;;;;;3.65;0.70;;;;;;;11.73;78.92;99081.88;10394541;28;20137;-62
2023/11/14 18:47:51;;;;;;;2.63;0.90;;;;;;;11.74;79.19;99076.28;10396616;28;20038;-62
2023/11/14 18:52:53;;;;;;;1.83;0.60;;;;;;;11.71;79.03;99061.41;10408051;28;20057;-62
2023/11/14 18:57:54;;;;;;;2.70;0.52;;;;;;;11.73;79.11;99060.34;10400118;28;20050;-60
2023/11/14 19:02:56;;;;;;;5.80;0.70;;;;;;;11.63;79.87;99044.66;10398102;28;20045;-60
2023/11/14 19:07:57;;;;;;;2.63;0.52;;;;;;;11.66;79.69;99049.63;10398293;28;20420;-60
2023/11/14 19:12:59;;;;;;;3.70;0.70;;;;;;;11.67;79.66;99060.19;10395751;28;20115;-62
2023/11/14 19:18:00;;;;;;;1.95;0.98;;;;;;;11.70;79.47;99051.66;10399399;28;20045;-61
2023/11/14 19:23:04;;;;;;;3.78;1.52;;;;;;;11.79;79.53;99035.25;10399939;28;20049;-63
2023/11/14 19:28:25;;;;;;;5.30;1.70;;;;;;;11.82;79.24;99043.72;10382068;28;20131;-61
2023/11/14 19:33:27;;;;;;;4.35;1.50;;;;;;;11.88;79.45;99045.53;10401532;28;20046;-61
2023/11/14 19:38:30;;;;;;;4.00;1.92;;;;;;;11.89;79.62;99041.03;10401956;28;20060;-62
2023/11/14 19:43:32;;;;;;;2.58;1.45;;;;;;;11.93;79.58;99046.78;10407044;28;20132;-62
2023/11/14 19:48:34;;;;;;;4.43;2.00;;;;;;;11.98;79.20;99038.91;10409015;28;20138;-61
2023/11/14 19:53:36;;;;;;;5.50;1.88;;;;;;;11.97;79.16;99030.00;10411234;28;20064;-60
2023/11/14 19:58:38;;;;;;;5.10;2.22;;;;;;;11.97;79.38;99038.09;10406496;28;20115;-60
2023/11/14 20:03:41;;;;;;;3.67;2.00;;;;;;;11.99;79.24;99029.78;10377637;28;20053;-61
2023/11/14 20:08:43;;;;;;;3.20;1.63;;;;;;;11.97;79.82;99040.78;10406825;28;20037;-61
2023/11/14 20:13:45;;;;;;;4.95;2.17;;;;;;;11.96;79.50;99044.50;10407792;28;20148;-61
2023/11/14 20:18:47;;;;;;;4.68;2.22;;;;;;;12.00;79.30;99037.63;10408016;28;20047;-61
2023/11/14 20:23:48;;;;;;;3.72;1.63;;;;;;;12.06;79.41;99047.53;10404760;28;20053;-61
2023/11/14 20:28:50;;;;;;;2.95;1.42;;;;;;;12.12;79.39;99045.84;10409142;28;20068;-61
2023/11/14 20:33:52;;;;;;;4.32;1.00;;;;;;;12.17;79.36;99072.97;10405626;28;20045;-61
2023/11/14 20:38:54;;;;;;;1.88;0.80;;;;;;;12.20;79.32;99069.00;10399214;28;20056;-60
2023/11/14 20:43:55;;;;;;;3.58;0.77;;;;;;;12.32;78.99;99085.28;10397417;28;20044;-61
2023/11/14 20:48:57;;;;;;;3.08;0.80;;;;;;;12.33;78.69;99078.88;10400431;28;20045;-61
2023/11/14 20:53:58;;;;;;;2.78;0.43;;;;;;;12.33;78.72;99093.16;10405656;28;20048;-60
2023/11/14 20:59:00;;;;;;;1.02;0.40;;;;;;;12.37;78.72;99101.63;10397558;28;21407;-64
2023/11/14 21:04:01;;;;;;;0.80;0.30;;;;;;;12.39;78.68;99105.75;10401485;28;20095;-61
2023/11/14 21:09:04;;;;;;;3.45;0.40;;;;;;;12.44;78.41;99115.88;10390750;28;20045;-61
2023/11/14 21:14:06;;;;;;;1.95;0.30;;;;;;;12.46;78.43;99130.78;10410333;28;20103;-62
2023/11/14 21:19:08;;;;;;;0.38;0.28;;;;;;;12.55;78.15;99125.94;10397367;28;20130;-63
2023/11/14 21:24:11;;;;;;;1.40;0.10;;;;;;;12.53;77.76;99146.09;10401606;28;20037;-65
2023/11/14 21:29:13;;;;;;;0.28;0.10;;;;;;;12.53;78.02;99149.59;10408557;28;20068;-64
2023/11/14 21:34:14;;;;;;;1.98;0.10;;;;;;;12.55;77.32;99160.19;10409773;28;20054;-61
2023/11/14 21:39:16;;;;;;;2.22;1.10;;;;;;;12.54;77.31;99170.13;10375830;28;20046;-63
2023/11/14 21:44:17;;;;;;;1.65;0.65;;;;;;;12.41;77.39;99184.50;10381376;28;20079;-63
2023/11/14 21:49:19;;;;;;;0.50;0.10;;;;;;;12.35;77.48;99209.63;10378049;28;20049;-61
2023/11/14 21:54:20;;;;;;;1.33;0.10;;;;;;;12.33;76.87;99238.66;10400010;28;20049;-64
2023/11/14 21:59:22;;;;;;;1.33;0.00;;;;;;;12.32;76.23;99271.22;10394486;28;20343;-60
2023/11/14 22:04:24;;;;;;;0.70;0.05;;;;;;;12.18;76.23;99283.91;10395495;28;22499;-62
2023/11/14 22:09:25;;;;;;;1.00;0.00;;;;;;;12.06;76.09;99295.34;10401891;28;20044;-62
2023/11/14 22:14:27;;;;;;;0.30;0.10;;;;;;;12.15;75.38;99311.28;10383793;28;20052;-61
2023/11/14 22:19:29;;;;;;;1.65;0.00;;;;;;;12.26;74.95;99326.78;10401413;28;20049;-61
2023/11/14 22:24:32;;;;;;;0.32;0.15;;;;;;;12.23;74.75;99349.59;10399600;28;20145;-61
2023/11/14 22:29:34;;;;;;;0.10;0.00;;;;;;;12.32;74.44;99370.91;10361823;28;20580;-61
2023/11/14 22:34:35;;;;;;;1.67;0.00;;;;;;;12.29;73.41;99394.56;10405040;28;20076;-61
2023/11/14 22:39:37;;;;;;;0.00;0.00;;;;;;;12.33;73.41;99396.84;10386976;28;20056;-61
2023/11/14 22:44:39;;;;;;;0.10;0.00;;;;;;;12.40;73.22;99405.72;10399795;28;20047;-62
2023/11/14 22:49:41;;;;;;;0.75;0.00;;;;;;;12.50;72.79;99423.13;10334871;28;20049;-61
2023/11/14 22:54:43;;;;;;;0.10;0.00;;;;;;;12.50;73.49;99431.22;10337382;28;20395;-61
2023/11/14 22:59:45;;;;;;;2.17;0.05;;;;;;;12.58;73.12;99426.63;10356691;28;20413;-61
2023/11/14 23:04:47;;;;;;;0.60;0.05;;;;;;;12.45;73.48;99439.09;10373792;28;20073;-62
2023/11/14 23:09:48;;;;;;;0.80;0.00;;;;;;;12.38;74.15;99449.06;10369855;28;20042;-61
2023/11/14 23:14:50;;;;;;;0.32;0.00;;;;;;;12.34;74.29;99460.47;10352776;28;20052;-61
2023/11/14 23:19:51;;;;;;;0.03;0.00;;;;;;;12.37;73.83;99468.16;10352584;28;20041;-61